Time;durP1;ratioP1;P1;durP2;ratioP2;P2;SDS_P1;SDS_P2;PMS_P1;PMS_P2;Temp;Humidity;BMP_temperature;BMP_pressure;BME280_temperature;BME280_humidity;BME280_pressure;Samples;Min_cycle;Max_cycle;Signal;HPM_P1;HPM_P2
2022/06/09 00:00:26;;;;;;;12.57;8.55;;;14.60;99.90;;;;;;5106859;28;20059;-85
2022/06/09 00:02:55;;;;;;;12.93;8.20;;;15.10;99.90;;;;;;5088062;28;20039;-85
2022/06/09 00:05:22;;;;;;;21.02;9.68;;;15.00;99.90;;;;;;5089198;28;20055;-85
2022/06/09 00:07:52;;;;;;;20.23;10.82;;;14.70;99.90;;;;;;5087329;28;20056;-85
2022/06/09 00:10:26;;;;;;;18.88;10.57;;;15.00;99.90;;;;;;5106881;28;20059;-85
2022/06/09 00:12:52;;;;;;;23.08;10.93;;;15.40;99.90;;;;;;5087932;28;20047;-85
2022/06/09 00:15:18;;;;;;;20.98;10.93;;;14.70;99.90;;;;;;5071602;28;20389;-85
2022/06/09 00:17:44;;;;;;;26.25;11.02;;;14.70;99.90;;;;;;5089491;28;20045;-85
2022/06/09 00:20:12;;;;;;;27.48;11.02;;;15.20;99.90;;;;;;5091908;28;20036;-85
2022/06/09 00:22:37;;;;;;;23.52;11.07;;;14.60;99.90;;;;;;5093471;28;20397;-85
2022/06/09 00:25:04;;;;;;;25.42;11.43;;;14.60;99.90;;;;;;5109558;28;20031;-85
2022/06/09 00:27:29;;;;;;;27.02;12.15;;;14.60;99.90;;;;;;5092673;28;20058;-85
2022/06/09 00:29:55;;;;;;;23.45;11.25;;;14.60;99.90;;;;;;5110444;28;20036;-84
2022/06/09 00:32:21;;;;;;;28.88;11.05;;;14.70;99.90;;;;;;5110614;28;20052;-85
2022/06/09 00:34:46;;;;;;;26.42;11.15;;;14.70;99.90;;;;;;5092351;28;20037;-85
2022/06/09 00:37:12;;;;;;;22.98;11.02;;;14.60;99.90;;;;;;5091824;28;20165;-85
2022/06/09 00:39:38;;;;;;;28.80;11.10;;;14.60;99.90;;;;;;5093197;28;20497;-85
2022/06/09 00:42:05;;;;;;;28.70;11.82;;;14.70;99.90;;;;;;5091551;28;20070;-85
2022/06/09 00:44:31;;;;;;;38.38;11.85;;;14.60;99.90;;;;;;5110450;28;20058;-85
2022/06/09 00:47:17;;;;;;;29.48;11.95;;;15.60;99.90;;;;;;5091478;28;20040;-85
2022/06/09 00:50:11;;;;;;;31.35;11.52;;;14.70;99.90;;;;;;5110182;28;20055;-85
2022/06/09 00:52:42;;;;;;;37.08;11.40;;;14.70;99.90;;;;;;5092299;28;20048;-85
2022/06/09 00:55:15;;;;;;;28.08;11.15;;;14.70;99.90;;;;;;5109745;28;20043;-85
2022/06/09 00:57:49;;;;;;;30.88;10.80;;;14.70;99.90;;;;;;5092015;28;20435;-85
2022/06/09 01:00:24;;;;;;;31.15;11.10;;;14.70;99.90;;;;;;5110008;28;20064;-85
2022/06/09 01:02:54;;;;;;;24.25;10.27;;;14.70;99.90;;;;;;5109292;28;20087;-85
2022/06/09 01:05:22;;;;;;;31.48;11.73;;;14.70;99.90;;;;;;5092059;28;20036;-85
2022/06/09 01:07:53;;;;;;;28.48;9.65;;;14.70;99.90;;;;;;5109120;28;20134;-85
2022/06/09 01:10:18;;;;;;;26.38;10.02;;;14.70;99.90;;;;;;5074821;28;20122;-86
2022/06/09 01:12:46;;;;;;;33.38;10.60;;;14.70;99.90;;;;;;5091091;28;20113;-85
2022/06/09 01:15:15;;;;;;;31.95;10.65;;;14.90;99.90;;;;;;5091273;28;20486;-85
2022/06/09 01:17:46;;;;;;;29.10;9.77;;;14.80;99.90;;;;;;5108701;28;20044;-85
2022/06/09 01:20:32;;;;;;;31.88;11.68;;;15.20;99.90;;;;;;5090453;28;20043;-85
2022/06/09 01:23:20;;;;;;;30.63;10.80;;;14.60;99.90;;;;;;5110112;28;20118;-85
2022/06/09 01:26:12;;;;;;;38.67;11.05;;;14.60;99.90;;;;;;5091597;28;20055;-86
2022/06/09 01:28:50;;;;;;;18.67;8.13;;;14.60;99.90;;;;;;5089945;28;20602;-86
2022/06/09 01:31:36;;;;;;;31.73;10.00;;;14.60;99.90;;;;;;5109664;28;20407;-85
2022/06/09 01:34:28;;;;;;;29.95;10.38;;;14.60;99.90;;;;;;5090550;28;20043;-85
2022/06/09 01:37:06;;;;;;;32.25;12.73;;;14.50;99.90;;;;;;5107541;28;20043;-85
2022/06/09 01:39:43;;;;;;;29.42;11.43;;;14.50;99.90;;;;;;5091837;28;20526;-85
2022/06/09 01:42:41;;;;;;;39.50;12.60;;;14.50;99.90;;;;;;5107649;28;20105;-85
2022/06/09 01:45:52;;;;;;;29.20;10.93;;;15.20;99.90;;;;;;5096667;28;20107;-85
2022/06/09 01:48:20;;;;;;;27.45;11.20;;;14.50;99.90;;;;;;5029590;28;20527;-85
2022/06/09 01:50:54;;;;;;;31.15;11.60;;;14.50;99.90;;;;;;5089921;28;20051;-84
2022/06/09 01:53:48;;;;;;;33.05;11.50;;;14.50;99.90;;;;;;5127083;27;20199;-84
2022/06/09 01:56:35;;;;;;;29.88;11.73;;;14.50;99.90;;;;;;5111339;27;20131;-85
2022/06/09 01:59:15;;;;;;;26.85;12.20;;;14.50;99.90;;;;;;5110591;27;20505;-84
2022/06/09 02:02:09;;;;;;;30.80;13.35;;;14.40;99.90;;;;;;5113629;27;20051;-84
2022/06/09 02:05:00;;;;;;;38.28;14.55;;;14.50;99.90;;;;;;5109139;27;20047;-84
2022/06/09 02:07:29;;;;;;;29.65;13.40;;;14.50;99.90;;;;;;5110187;27;20482;-84
2022/06/09 02:09:55;;;;;;;39.75;14.50;;;14.50;99.90;;;;;;5094053;27;20058;-84
2022/06/09 02:12:24;;;;;;;27.90;13.50;;;14.50;99.90;;;;;;5110587;27;20479;-84
2022/06/09 02:14:53;;;;;;;31.20;13.85;;;14.50;99.90;;;;;;5128803;27;20554;-84
2022/06/09 02:17:19;;;;;;;39.53;15.45;;;14.60;99.90;;;;;;5129410;27;20046;-84
2022/06/09 02:19:47;;;;;;;33.00;14.40;;;14.50;99.90;;;;;;5110156;27;20028;-84
2022/06/09 02:22:13;;;;;;;36.28;14.05;;;14.50;99.90;;;;;;5111030;27;20051;-84
2022/06/09 02:24:40;;;;;;;34.72;14.25;;;14.40;99.90;;;;;;5109738;27;20508;-85
2022/06/09 02:27:06;;;;;;;33.97;14.27;;;14.40;99.90;;;;;;5111147;27;20070;-84
2022/06/09 02:29:32;;;;;;;28.63;15.75;;;14.30;99.90;;;;;;5128607;27;20480;-84
2022/06/09 02:31:58;;;;;;;25.08;14.02;;;14.30;99.90;;;;;;5128918;27;20039;-84
2022/06/09 02:34:24;;;;;;;41.08;16.10;;;14.30;99.90;;;;;;5129054;27;20043;-84
2022/06/09 02:36:50;;;;;;;32.90;15.02;;;14.30;99.90;;;;;;5128115;27;20092;-84
2022/06/09 02:39:15;;;;;;;33.55;14.75;;;14.80;99.90;;;;;;5110697;27;20043;-84
2022/06/09 02:41:41;;;;;;;31.35;13.93;;;14.60;99.90;;;;;;5092592;27;20045;-84
2022/06/09 02:44:07;;;;;;;35.03;15.02;;;14.20;99.90;;;;;;5110388;27;20047;-84
2022/06/09 02:46:33;;;;;;;28.30;14.50;;;14.20;99.90;;;;;;5127838;27;20039;-84
2022/06/09 02:48:59;;;;;;;35.13;14.75;;;14.20;99.90;;;;;;5128382;27;20035;-84
2022/06/09 02:51:27;;;;;;;38.33;15.02;;;14.10;99.90;;;;;;5093067;27;20070;-84
2022/06/09 02:53:58;;;;;;;35.85;14.65;;;15.10;99.90;;;;;;5127977;27;20050;-84
2022/06/09 02:56:24;;;;;;;31.35;15.70;;;14.20;99.90;;;;;;5110663;27;20047;-84
2022/06/09 02:58:50;;;;;;;36.05;15.52;;;14.20;99.90;;;;;;5109456;27;20122;-84
2022/06/09 03:01:16;;;;;;;30.02;14.48;;;14.20;99.90;;;;;;5128153;27;20078;-84
2022/06/09 03:03:42;;;;;;;33.38;15.90;;;14.20;99.90;;;;;;5109028;27;20490;-84
2022/06/09 03:06:08;;;;;;;36.03;16.35;;;14.20;99.90;;;;;;5093204;27;20465;-84
2022/06/09 03:08:34;;;;;;;28.27;15.10;;;14.20;99.90;;;;;;5130723;27;20443;-85
2022/06/09 03:11:00;;;;;;;29.75;16.27;;;14.10;99.90;;;;;;5132014;27;20039;-84
2022/06/09 03:13:27;;;;;;;32.45;14.75;;;14.30;99.90;;;;;;5114618;27;20043;-84
2022/06/09 03:15:53;;;;;;;26.33;14.90;;;14.10;99.90;;;;;;5113111;27;20446;-84
2022/06/09 03:18:19;;;;;;;42.83;17.02;;;14.10;99.90;;;;;;5113506;27;20112;-84
2022/06/09 03:20:46;;;;;;;32.70;14.75;;;14.20;99.90;;;;;;5130575;27;20043;-84
2022/06/09 03:23:12;;;;;;;36.55;15.48;;;14.10;99.90;;;;;;5131297;27;20047;-84
2022/06/09 03:25:38;;;;;;;37.97;15.55;;;14.20;99.90;;;;;;5096229;27;20061;-84
2022/06/09 03:28:05;;;;;;;35.28;16.58;;;14.10;99.90;;;;;;5112608;27;20420;-84
2022/06/09 03:30:34;;;;;;;28.85;14.55;;;14.20;99.90;;;;;;5132675;27;20047;-84
2022/06/09 03:33:00;;;;;;;36.78;16.10;;;14.10;99.90;;;;;;5113187;27;20229;-84
2022/06/09 03:35:26;;;;;;;31.02;16.00;;;14.10;99.90;;;;;;5113779;27;20065;-84
2022/06/09 03:37:52;;;;;;;32.80;16.35;;;14.10;99.90;;;;;;5114986;27;20542;-84
2022/06/09 03:40:20;;;;;;;31.33;15.00;;;14.10;99.90;;;;;;5132829;27;20095;-85
2022/06/09 03:42:46;;;;;;;35.40;16.05;;;14.10;99.90;;;;;;5096756;27;20086;-84
2022/06/09 03:45:12;;;;;;;34.45;16.90;;;14.10;99.90;;;;;;5112000;27;20046;-84
2022/06/09 03:47:38;;;;;;;32.22;16.38;;;14.10;99.90;;;;;;5096648;27;20058;-84
2022/06/09 03:50:07;;;;;;;40.45;16.98;;;14.00;99.90;;;;;;5112367;27;20051;-84
2022/06/09 03:52:33;;;;;;;49.72;18.00;;;14.10;99.90;;;;;;5112580;27;20125;-84
2022/06/09 03:54:59;;;;;;;32.30;15.77;;;14.10;99.90;;;;;;5131247;27;20086;-84
2022/06/09 03:57:25;;;;;;;32.75;15.43;;;14.00;99.90;;;;;;5113159;27;20494;-84
2022/06/09 03:59:51;;;;;;;30.10;16.90;;;14.90;99.90;;;;;;5112594;27;20054;-84
2022/06/09 04:02:17;;;;;;;34.85;17.58;;;14.10;99.90;;;;;;5112285;27;20043;-84
2022/06/09 04:04:42;;;;;;;31.27;17.75;;;14.10;99.90;;;;;;5095121;27;20043;-84
2022/06/09 04:07:10;;;;;;;34.15;19.23;;;14.10;99.90;;;;;;5128978;27;20132;-84
2022/06/09 04:09:36;;;;;;;33.97;18.35;;;14.80;99.90;;;;;;5128972;28;20051;-84
2022/06/09 04:12:02;;;;;;;35.00;19.30;;;14.20;99.90;;;;;;5092089;28;20101;-84
2022/06/09 04:14:28;;;;;;;36.80;19.00;;;14.20;99.90;;;;;;5075265;28;20071;-84
2022/06/09 04:16:55;;;;;;;49.22;19.75;;;14.20;99.90;;;;;;5126856;28;20130;-84
2022/06/09 04:19:22;;;;;;;41.97;19.55;;;14.20;99.90;;;;;;5126643;28;20047;-81
2022/06/09 04:21:48;;;;;;;33.03;17.15;;;14.30;99.90;;;;;;5108950;28;20570;-82
2022/06/09 04:24:14;;;;;;;37.50;18.70;;;14.60;99.90;;;;;;5126640;27;20126;-82
2022/06/09 04:26:41;;;;;;;37.17;18.50;;;14.40;99.90;;;;;;5127407;28;20457;-81
2022/06/09 04:29:11;;;;;;;35.00;19.33;;;14.40;99.90;;;;;;5128255;28;20043;-81
2022/06/09 04:31:37;;;;;;;35.92;18.33;;;14.40;99.90;;;;;;5109170;28;20039;-82
2022/06/09 04:34:03;;;;;;;34.92;17.85;;;14.40;99.90;;;;;;5126638;28;20485;-82
2022/06/09 04:36:29;;;;;;;33.17;17.88;;;14.50;99.90;;;;;;5126796;28;20039;-82
2022/06/09 04:38:55;;;;;;;38.25;17.92;;;14.90;99.90;;;;;;5092020;28;20035;-82
2022/06/09 04:41:20;;;;;;;33.28;18.80;;;15.10;99.90;;;;;;5108139;28;20448;-82
2022/06/09 04:43:47;;;;;;;37.72;18.40;;;14.50;99.90;;;;;;5091788;28;20048;-80
2022/06/09 04:46:17;;;;;;;33.50;19.17;;;14.50;99.90;;;;;;5126290;28;20043;-79
2022/06/09 04:48:43;;;;;;;34.58;18.08;;;15.00;99.90;;;;;;5126805;28;20047;-79
2022/06/09 04:51:13;;;;;;;34.63;18.20;;;14.50;99.90;;;;;;5126772;28;20426;-81
2022/06/09 04:53:39;;;;;;;33.20;18.30;;;14.70;99.90;;;;;;5107912;28;20055;-81
2022/06/09 04:56:06;;;;;;;28.10;17.67;;;14.60;99.90;;;;;;5091699;28;20039;-81
2022/06/09 04:58:32;;;;;;;31.85;17.48;;;14.50;99.90;;;;;;5107290;28;20046;-82
2022/06/09 05:00:58;;;;;;;27.45;18.73;;;14.50;99.90;;;;;;5104958;28;20055;-81
2022/06/09 05:03:24;;;;;;;33.47;18.73;;;14.50;99.90;;;;;;5105978;28;20087;-82
2022/06/09 05:05:50;;;;;;;32.45;19.73;;;14.50;99.90;;;;;;5091675;28;20042;-82
2022/06/09 05:08:17;;;;;;;31.88;19.48;;;14.50;99.90;;;;;;5091299;28;20394;-81
2022/06/09 05:10:45;;;;;;;36.00;21.15;;;15.50;99.90;;;;;;5109842;28;20440;-80
2022/06/09 05:13:12;;;;;;;33.95;19.63;;;15.50;99.90;;;;;;5110403;28;20493;-81
2022/06/09 05:15:49;;;;;;;37.20;20.50;;;14.60;99.90;;;;;;5109297;28;20097;-82
2022/06/09 05:18:15;;;;;;;34.80;20.58;;;14.60;99.90;;;;;;5110219;28;20440;-82
2022/06/09 05:20:41;;;;;;;33.88;19.98;;;14.70;99.90;;;;;;5109208;28;20086;-83
2022/06/09 05:23:07;;;;;;;35.05;20.90;;;14.60;99.90;;;;;;5091096;28;20082;-82
2022/06/09 05:25:32;;;;;;;33.60;20.83;;;14.70;99.90;;;;;;5091206;28;20047;-82
2022/06/09 05:27:59;;;;;;;32.80;21.60;;;14.60;99.90;;;;;;5090774;28;20047;-82
2022/06/09 05:30:25;;;;;;;35.13;21.27;;;14.70;99.90;;;;;;5109759;28;20047;-82
2022/06/09 05:32:52;;;;;;;28.92;19.77;;;14.80;99.90;;;;;;5090496;28;20399;-82
2022/06/09 05:35:19;;;;;;;29.92;19.02;;;14.80;99.90;;;;;;5091530;28;20391;-82
2022/06/09 05:46:01;;;;;;;24.13;15.00;;;14.90;99.90;;;;;;5089325;28;20118;-86
2022/06/09 05:48:27;;;;;;;24.02;16.30;;;15.00;99.90;;;;;;5090616;28;20039;-84
2022/06/09 05:50:54;;;;;;;25.55;16.58;;;15.10;99.90;;;;;;5107101;28;20551;-86
2022/06/09 05:53:20;;;;;;;23.85;17.50;;;15.10;99.90;;;;;;5090383;28;20098;-86
2022/06/09 05:55:45;;;;;;;26.98;16.58;;;15.20;99.90;;;;;;5090803;28;20450;-87
2022/06/09 05:58:12;;;;;;;30.48;19.17;;;15.30;99.90;;;;;;5108294;28;20117;-89
2022/06/09 06:00:38;;;;;;;28.52;18.35;;;15.40;99.90;;;;;;5073963;28;20055;-89
2022/06/09 06:03:04;;;;;;;30.23;19.00;;;15.50;99.90;;;;;;5089992;28;20065;-89
2022/06/09 06:08:14;;;;;;;34.08;18.88;;;15.50;99.90;;;;;;5092755;28;20059;-88
2022/06/09 06:10:40;;;;;;;33.75;18.00;;;15.40;99.90;;;;;;5107377;28;20040;-89
2022/06/09 06:13:05;;;;;;;28.17;18.02;;;16.40;99.90;;;;;;5090924;28;20039;-90
2022/06/09 06:15:32;;;;;;;27.05;18.92;;;15.50;99.90;;;;;;5055431;28;20075;-91
2022/06/09 06:18:01;;;;;;;28.25;18.90;;;16.20;99.90;;;;;;5058224;28;20039;-90
2022/06/09 06:20:26;;;;;;;25.52;17.83;;;15.60;99.90;;;;;;5041102;28;20048;-90
2022/06/09 06:22:52;;;;;;;22.00;16.60;;;15.70;99.90;;;;;;5090781;28;20050;-89
2022/06/09 06:25:18;;;;;;;24.67;16.13;;;15.60;99.90;;;;;;5040251;28;20047;-94
2022/06/09 06:27:43;;;;;;;26.73;16.42;;;15.60;99.90;;;;;;5040397;28;20054;-93
2022/06/09 06:30:09;;;;;;;21.98;16.75;;;16.80;99.90;;;;;;5057431;28;20132;-90
2022/06/09 06:32:35;;;;;;;27.70;17.38;;;15.70;99.90;;;;;;5073412;28;20051;-94
2022/06/09 06:35:01;;;;;;;18.67;14.60;;;16.10;99.90;;;;;;5040822;28;20039;-91
2022/06/09 06:37:27;;;;;;;19.77;14.60;;;16.10;99.90;;;;;;5072886;28;20044;-91
2022/06/09 06:39:52;;;;;;;23.20;13.90;;;15.90;99.90;;;;;;5056384;28;20044;-90
2022/06/09 06:42:18;;;;;;;18.17;13.60;;;16.00;99.90;;;;;;5073690;28;20134;-87
2022/06/09 06:44:44;;;;;;;14.57;12.20;;;16.70;99.90;;;;;;5089288;28;20047;-86
2022/06/09 06:47:11;;;;;;;15.13;13.38;;;16.10;99.90;;;;;;5073140;28;20059;-91
2022/06/09 06:49:36;;;;;;;16.02;13.73;;;16.10;99.90;;;;;;5073342;28;20039;-91
2022/06/09 06:52:02;;;;;;;19.60;15.23;;;16.10;99.90;;;;;;5062383;28;20075;-91
2022/06/09 06:54:28;;;;;;;18.02;13.70;;;16.10;99.90;;;;;;5048856;28;20059;-92
2022/06/09 06:56:54;;;;;;;18.23;13.73;;;16.50;99.90;;;;;;5075096;28;20101;-89
2022/06/09 06:59:19;;;;;;;20.70;14.77;;;16.20;99.90;;;;;;5078002;28;20047;-90
2022/06/09 07:01:45;;;;;;;17.45;13.75;;;16.30;99.90;;;;;;5076245;28;20479;-90
2022/06/09 07:04:11;;;;;;;15.90;12.70;;;16.40;99.90;;;;;;5101061;28;20128;-91
2022/06/09 07:06:36;;;;;;;13.80;10.32;;;16.50;99.90;;;;;;5078161;28;20039;-92
2022/06/09 07:09:02;;;;;;;15.20;10.93;;;16.60;99.90;;;;;;5040535;28;20126;-90
2022/06/09 07:11:28;;;;;;;12.43;9.65;;;16.70;99.90;;;;;;5055265;28;20044;-90
2022/06/09 07:13:54;;;;;;;13.70;9.90;;;17.10;99.90;;;;;;5089551;28;20047;-91
2022/06/09 07:16:19;;;;;;;14.38;10.23;;;16.90;99.90;;;;;;5089366;28;20083;-92
2022/06/09 07:18:46;;;;;;;12.18;10.07;;;17.00;99.90;;;;;;5055766;28;20052;-92
2022/06/09 07:21:13;;;;;;;12.40;8.98;;;17.10;99.90;;;;;;5072697;28;20462;-89
2022/06/09 07:23:38;;;;;;;11.15;8.43;;;17.30;99.90;;;;;;5072499;28;20052;-91
2022/06/09 07:26:05;;;;;;;11.73;8.68;;;17.30;99.90;;;;;;5072817;28;20548;-89
2022/06/09 07:28:31;;;;;;;11.32;8.98;;;17.30;99.90;;;;;;5088661;28;20076;-96
2022/06/09 07:30:59;;;;;;;8.07;7.03;;;17.30;99.90;;;;;;5057418;28;20039;-94
2022/06/09 07:33:32;;;;;;;9.30;7.32;;;17.30;99.90;;;;;;5072467;28;20046;-93
2022/06/09 07:35:59;;;;;;;9.77;6.95;;;17.30;99.90;;;;;;5072647;28;20043;-94
2022/06/09 07:38:26;;;;;;;8.27;6.57;;;17.40;99.90;;;;;;5073087;28;20043;-94
2022/06/09 07:40:55;;;;;;;12.27;6.78;;;17.50;99.90;;;;;;5071941;28;20048;-91
2022/06/09 07:43:21;;;;;;;10.30;7.13;;;17.70;99.90;;;;;;5039460;28;20134;-90
2022/06/09 07:45:48;;;;;;;8.43;5.15;;;18.10;99.90;;;;;;5088233;28;20479;-95
2022/06/09 07:48:14;;;;;;;7.82;6.32;;;17.90;99.90;;;;;;5057379;28;20075;-93
2022/06/09 07:50:41;;;;;;;9.07;5.03;;;18.00;99.90;;;;;;5055567;28;20619;-91
2022/06/09 07:53:06;;;;;;;5.10;4.28;;;18.40;99.90;;;;;;5088370;28;20043;-89
2022/06/09 07:55:33;;;;;;;4.72;2.83;;;18.00;99.90;;;;;;5088508;28;20188;-93
2022/06/09 07:57:59;;;;;;;5.13;2.80;;;18.00;99.90;;;;;;5071882;28;20043;-88
2022/06/09 08:00:26;;;;;;;5.20;2.30;;;18.00;99.90;;;;;;5089287;28;20055;-91
2022/06/09 08:02:53;;;;;;;3.45;2.58;;;18.20;99.90;;;;;;5071360;28;20055;-91
2022/06/09 08:05:21;;;;;;;4.75;2.70;;;18.30;99.90;;;;;;5072393;28;20040;-88
2022/06/09 08:07:47;;;;;;;5.35;2.05;;;18.40;99.90;;;;;;5072081;28;20110;-94
2022/06/09 08:10:20;;;;;;;4.20;1.70;;;18.50;99.90;;;;;;5088261;28;20498;-90
2022/06/09 08:12:50;;;;;;;3.88;1.90;;;18.70;99.90;;;;;;5089596;28;20050;-94
2022/06/09 08:15:17;;;;;;;2.85;1.75;;;18.70;99.90;;;;;;5072255;28;20099;-93
2022/06/09 08:17:43;;;;;;;3.53;1.52;;;18.80;99.90;;;;;;5056144;28;20075;-93
2022/06/09 08:20:10;;;;;;;4.65;1.45;;;18.90;99.90;;;;;;5088119;28;20076;-92
2022/06/09 08:22:41;;;;;;;4.22;1.83;;;19.10;99.90;;;;;;5054711;28;20093;-87
2022/06/09 08:25:08;;;;;;;4.43;1.23;;;19.20;99.90;;;;;;5071562;28;20043;-94
2022/06/09 08:27:34;;;;;;;3.42;1.38;;;19.20;99.90;;;;;;5055252;28;20105;-94
2022/06/09 08:30:00;;;;;;;3.00;1.08;;;19.20;99.90;;;;;;5072311;28;20043;-92
2022/06/09 08:32:26;;;;;;;5.88;1.15;;;19.30;99.90;;;;;;5054228;28;20089;-92
2022/06/09 08:34:52;;;;;;;3.97;1.17;;;19.90;99.90;;;;;;5071571;28;20043;-92
2022/06/09 08:37:18;;;;;;;4.03;1.60;;;19.40;99.90;;;;;;5054193;28;20040;-92
2022/06/09 08:39:43;;;;;;;2.78;1.17;;;19.50;99.90;;;;;;5074598;28;20424;-94
2022/06/09 08:42:18;;;;;;;2.90;1.05;;;19.70;99.90;;;;;;5059261;28;20036;-96
2022/06/09 08:44:57;;;;;;;6.85;1.13;;;19.90;99.90;;;;;;5075216;28;20078;-92
2022/06/09 08:47:42;;;;;;;3.53;1.05;;;19.90;99.90;;;;;;5075661;28;20093;-90
2022/06/09 08:50:41;;;;;;;2.50;0.70;;;19.80;99.90;;;;;;5074030;28;20043;-91
2022/06/09 08:53:15;;;;;;;1.73;0.40;;;19.80;99.90;;;;;;5081125;28;20376;-92
2022/06/09 08:55:52;;;;;;;1.65;0.40;;;19.70;99.90;;;;;;5076198;28;20086;-92
2022/06/09 08:58:36;;;;;;;5.43;0.88;;;19.70;99.90;;;;;;5074013;28;20135;-93
2022/06/09 09:01:17;;;;;;;3.88;0.50;;;19.80;99.90;;;;;;5073537;28;20097;-90
2022/06/09 09:03:58;;;;;;;2.40;0.70;;;19.70;99.90;;;;;;5074797;28;20537;-88
2022/06/09 09:06:29;;;;;;;2.63;0.80;;;19.70;99.90;;;;;;5109387;28;20429;-89
2022/06/09 09:09:02;;;;;;;3.27;0.50;;;19.60;99.90;;;;;;5074752;28;20074;-86
2022/06/09 09:11:46;;;;;;;3.13;0.70;;;19.70;99.90;;;;;;5073289;28;20317;-84
2022/06/09 09:14:21;;;;;;;4.78;0.70;;;19.80;99.90;;;;;;5109886;28;20048;-86
2022/06/09 09:17:02;;;;;;;4.07;0.50;;;19.80;99.90;;;;;;5094255;28;20090;-88
2022/06/09 09:19:40;;;;;;;3.92;0.80;;;19.90;99.90;;;;;;5114125;28;20456;-86
2022/06/09 09:35:13;;;;;;;3.38;1.02;;;19.80;99.90;;;;;;5129053;27;20807;-79
2022/06/09 09:37:45;;;;;;;5.05;0.70;;;20.30;99.90;;;;;;5110653;28;20066;-79
2022/06/09 09:40:32;;;;;;;1.90;0.43;;;20.30;99.90;;;;;;5109860;28;20036;-80
2022/06/09 09:43:00;;;;;;;2.95;0.50;;;20.30;99.90;;;;;;5110632;28;20137;-80
2022/06/09 09:45:45;;;;;;;4.10;0.57;;;20.30;99.90;;;;;;5109893;28;20039;-81
2022/06/09 09:48:20;;;;;;;2.75;0.60;;;20.20;99.90;;;;;;5127352;28;20494;-80
2022/06/09 09:50:45;;;;;;;2.20;0.50;;;20.30;99.90;;;;;;5109391;28;20077;-80
2022/06/09 09:53:27;;;;;;;6.95;0.98;;;20.20;99.90;;;;;;5107987;28;20583;-82
2022/06/09 09:55:58;;;;;;;2.50;0.50;;;20.30;99.90;;;;;;5125724;28;20337;-82
2022/06/09 09:58:39;;;;;;;3.45;0.88;;;20.30;99.90;;;;;;5108576;28;20311;-82
2022/06/09 10:01:17;;;;;;;2.95;0.60;;;20.40;99.90;;;;;;5107972;28;20079;-82
2022/06/09 10:09:59;;;;;;;4.10;0.60;;;21.10;99.90;;;;;;5124895;28;20437;-81
2022/06/09 10:12:33;;;;;;;4.32;0.55;;;21.30;99.90;;;;;;5091890;28;20043;-81
2022/06/09 10:15:11;;;;;;;4.28;0.57;;;21.20;99.90;;;;;;5125501;28;20398;-82
2022/06/09 10:17:44;;;;;;;7.00;0.80;;;21.20;99.90;;;;;;5108351;28;20044;-82
2022/06/09 10:20:36;;;;;;;1.30;0.40;;;21.20;99.90;;;;;;5108422;28;20039;-83
2022/06/09 10:23:34;;;;;;;5.20;0.68;;;21.30;99.90;;;;;;5124609;28;20047;-81
2022/06/09 10:26:21;;;;;;;3.42;0.50;;;21.40;99.90;;;;;;5073617;28;20039;-82
2022/06/09 10:29:26;;;;;;;3.97;0.45;;;21.20;99.90;;;;;;5108189;28;20054;-82
2022/06/09 10:32:05;;;;;;;3.63;0.68;;;21.30;99.90;;;;;;5124759;28;20546;-82
2022/06/09 10:35:06;;;;;;;3.60;0.70;;;21.20;99.90;;;;;;5118640;28;20063;-82
2022/06/09 10:37:41;;;;;;;4.47;0.70;;;21.30;99.90;;;;;;5110243;28;20039;-82
2022/06/09 10:40:41;;;;;;;4.85;0.63;;;21.40;99.90;;;;;;5109128;28;20082;-82
2022/06/09 10:43:26;;;;;;;7.32;0.75;;;21.50;99.90;;;;;;5093109;28;20043;-81
2022/06/09 10:46:11;;;;;;;4.10;0.60;;;21.50;99.90;;;;;;5092960;28;20112;-82
2022/06/09 10:55:16;;;;;;;4.22;0.70;;;21.40;99.90;;;;;;5110372;28;20113;-81
2022/06/09 10:58:39;;;;;;;3.45;0.55;;;21.30;99.90;;;;;;5109229;28;20051;-82
2022/06/09 11:01:05;;;;;;;2.55;0.60;;;21.10;99.90;;;;;;5010976;28;20088;-82
2022/06/09 11:03:46;;;;;;;3.65;0.60;;;20.90;99.90;;;;;;5011803;28;20046;-82
2022/06/09 11:06:37;;;;;;;3.60;0.40;;;20.90;99.90;;;;;;5065799;28;20477;-84
2022/06/09 11:09:12;;;;;;;4.03;0.80;;;20.80;99.90;;;;;;5109221;28;20043;-82
2022/06/09 11:12:16;;;;;;;4.90;0.77;;;20.80;99.90;;;;;;5109848;28;20040;-83
2022/06/09 11:15:10;;;;;;;4.53;0.60;;;20.90;99.90;;;;;;5108580;28;20051;-83
2022/06/09 11:17:56;;;;;;;3.95;0.55;;;21.10;99.90;;;;;;5109281;28;20173;-82
2022/06/09 11:20:47;;;;;;;4.70;0.88;;;21.40;99.90;;;;;;5109656;28;20046;-82
2022/06/09 11:23:43;;;;;;;5.30;1.02;;;21.60;99.90;;;;;;5091540;28;20052;-84
2022/06/09 11:26:35;;;;;;;2.05;0.47;;;21.60;99.90;;;;;;5109203;28;20044;-83
2022/06/09 11:29:06;;;;;;;3.15;0.70;;;21.40;99.90;;;;;;5070888;28;20052;-84
2022/06/09 11:31:57;;;;;;;5.32;0.73;;;21.50;99.90;;;;;;5108182;28;20204;-80
2022/06/09 11:34:50;;;;;;;1.75;0.60;;;21.50;99.90;;;;;;5108903;28;20365;-82
2022/06/09 11:37:23;;;;;;;3.53;0.73;;;21.60;99.90;;;;;;5109384;28;20101;-81
2022/06/09 11:40:02;;;;;;;6.90;0.90;;;21.80;99.90;;;;;;5108332;28;20089;-82
2022/06/09 11:42:43;;;;;;;1.98;0.50;;;22.00;99.90;;;;;;5109322;28;20039;-83
2022/06/09 11:45:37;;;;;;;7.55;0.70;;;21.90;99.90;;;;;;5108715;28;20376;-81
2022/06/09 11:48:10;;;;;;;4.57;0.75;;;22.00;99.90;;;;;;5108360;28;20051;-82
2022/06/09 11:50:42;;;;;;;2.78;0.65;;;22.20;99.90;;;;;;5109178;28;20043;-82
2022/06/09 11:53:13;;;;;;;2.80;0.60;;;22.40;99.90;;;;;;5108073;28;20112;-82
2022/06/09 11:56:00;;;;;;;3.50;0.70;;;22.30;99.90;;;;;;5093064;28;20126;-81
2022/06/09 11:58:38;;;;;;;1.88;0.52;;;22.30;99.90;;;;;;5108309;28;20036;-82
2022/06/09 12:01:16;;;;;;;1.42;0.30;;;22.40;99.90;;;;;;5108029;28;20047;-80
2022/06/09 12:04:12;;;;;;;2.28;0.88;;;22.40;99.90;;;;;;5108798;28;20062;-83
2022/06/09 12:07:01;;;;;;;2.55;0.50;;;22.30;99.90;;;;;;5107830;28;20097;-81
2022/06/09 12:09:51;;;;;;;4.15;0.77;;;22.20;99.90;;;;;;5108368;28;20048;-83
2022/06/09 12:12:37;;;;;;;1.90;0.60;;;22.30;99.90;;;;;;5092190;28;20385;-82
2022/06/09 12:15:21;;;;;;;4.22;0.65;;;22.30;99.90;;;;;;5107648;28;20111;-82
2022/06/09 12:18:21;;;;;;;3.03;0.40;;;22.30;99.90;;;;;;5091379;28;20044;-82
2022/06/09 12:20:46;;;;;;;6.65;1.00;;;22.30;97.80;;;;;;5054252;28;20500;-83
2022/06/09 12:23:41;;;;;;;1.98;0.70;;;22.30;99.90;;;;;;5107252;28;20050;-82
2022/06/09 12:26:10;;;;;;;4.40;0.50;;;22.50;99.90;;;;;;5107729;28;20043;-83
2022/06/09 12:28:43;;;;;;;3.95;0.60;;;22.70;99.90;;;;;;5090560;28;20492;-83
2022/06/09 12:31:20;;;;;;;2.92;0.60;;;22.80;99.60;;;;;;5107243;28;20492;-83
2022/06/09 12:34:05;;;;;;;3.45;0.68;;;22.90;99.90;;;;;;5088360;28;20348;-81
2022/06/09 12:36:47;;;;;;;7.30;0.90;;;22.90;99.80;;;;;;5090391;28;20097;-82
2022/06/09 12:39:25;;;;;;;5.15;1.13;;;22.90;99.60;;;;;;5107711;28;20047;-84
2022/06/09 12:41:52;;;;;;;2.42;0.43;;;22.90;99.90;;;;;;5108800;28;20045;-83
2022/06/09 12:44:24;;;;;;;1.45;0.57;;;23.10;99.90;;;;;;5106818;28;20340;-82
2022/06/09 12:47:23;;;;;;;1.83;0.60;;;23.20;97.40;;;;;;5107818;28;20507;-81
2022/06/09 12:49:55;;;;;;;4.78;0.60;;;23.20;96.90;;;;;;5089418;28;20080;-83
2022/06/09 12:52:26;;;;;;;3.83;0.65;;;23.20;98.10;;;;;;5090269;28;20040;-81
2022/06/09 12:55:06;;;;;;;2.40;0.30;;;23.30;98.80;;;;;;5107897;28;20028;-82
2022/06/09 12:57:35;;;;;;;4.82;0.70;;;23.50;95.60;;;;;;5106589;28;20047;-80
2022/06/09 13:00:21;;;;;;;4.53;0.90;;;23.40;97.70;;;;;;5107648;28;20048;-82
2022/06/09 13:02:48;;;;;;;4.10;0.70;;;23.00;96.80;;;;;;5106853;28;20143;-79
2022/06/09 13:05:19;;;;;;;4.20;0.65;;;22.50;99.20;;;;;;5106896;28;20130;-80
2022/06/09 13:07:55;;;;;;;4.07;0.60;;;22.30;99.90;;;;;;5107747;28;20096;-83
2022/06/09 13:10:29;;;;;;;3.47;0.73;;;22.10;99.10;;;;;;5089922;28;20479;-83
2022/06/09 13:13:05;;;;;;;2.97;0.68;;;22.20;99.90;;;;;;5107027;28;20044;-82
2022/06/09 13:15:52;;;;;;;3.67;0.65;;;22.30;99.50;;;;;;5090270;28;20554;-81
2022/06/09 13:18:29;;;;;;;6.72;0.80;;;22.40;97.70;;;;;;5089846;28;20048;-83
2022/06/09 13:21:20;;;;;;;7.47;1.20;;;22.20;99.90;;;;;;5091221;28;20039;-81
2022/06/09 13:23:56;;;;;;;3.72;0.75;;;22.00;99.90;;;;;;5094630;28;20059;-79
2022/06/09 13:26:26;;;;;;;3.20;0.60;;;21.90;99.90;;;;;;5107119;28;20071;-83
2022/06/09 13:28:58;;;;;;;3.22;0.40;;;22.10;99.90;;;;;;5107474;28;20401;-82
2022/06/09 13:31:27;;;;;;;4.05;0.43;;;22.40;99.60;;;;;;5089570;28;20139;-85
2022/06/09 13:34:14;;;;;;;3.97;0.80;;;22.70;99.10;;;;;;5107132;28;20055;-84
2022/06/09 13:36:57;;;;;;;2.97;0.68;;;22.90;96.30;;;;;;5089424;28;20044;-85
2022/06/09 13:39:32;;;;;;;4.07;0.30;;;23.10;99.20;;;;;;5089955;28;20504;-85